Ringgold, Louisiana
Current Conditions -  °F | °C
As of 11:56 AM on Saturday 22 Nov 2014 (Local Time) from KMNE Reporting Station
Clear Clear  
Wind Chill: 70°   Ceiling: Unl
Heat Index: 70°   Visibility: 10mi
Dew Point: 55°   Wind: 10mph
Humidity: 60%   Direction: 130°SE
Pressure: 30.08"   Gusts: 16mph
Location:  32.33°N, 93.28°W
Report Text: KMNE 221756Z AUTO 13009G14KT 10SM CLR 21/13 A3008 RMK AO2 LTG DSNT W
Loading
Personal Weather Stations






























Interactive Weather Map New forecast layout! Learn more

10-Day Weather Forecast

Advertisements
Track Severe Weather on mobile